Time;durP1;ratioP1;P1;durP2;ratioP2;P2;SDS_P1;SDS_P2;PMS_P1;PMS_P2;Temp;Humidity;BMP_temperature;BMP_pressure;BME280_temperature;BME280_humidity;BME280_pressure;Samples;Min_cycle;Max_cycle;Signal;HPM_P1;HPM_P2
2021/04/22 00:01:29;;;;;;;13.93;9.33;;;8.10;99.90;;;;;;5061552;28;20271;-80
2021/04/22 00:03:54;;;;;;;12.43;10.03;;;8.00;99.90;;;;;;5054260;28;20544;-80
2021/04/22 00:06:20;;;;;;;11.10;9.97;;;8.00;99.90;;;;;;5059137;28;20185;-81
2021/04/22 00:08:46;;;;;;;10.63;9.53;;;7.90;99.90;;;;;;5058391;28;20726;-81
2021/04/22 00:11:11;;;;;;;12.27;10.13;;;7.90;99.90;;;;;;5072531;28;20299;-80
2021/04/22 00:13:37;;;;;;;10.77;9.70;;;7.90;99.90;;;;;;5062119;28;20317;-80
2021/04/22 00:16:04;;;;;;;10.27;9.27;;;7.90;99.90;;;;;;5061478;28;20185;-80
2021/04/22 00:18:29;;;;;;;11.10;9.80;;;7.90;99.90;;;;;;5057958;28;20324;-80
2021/04/22 00:20:55;;;;;;;10.07;9.03;;;8.00;99.90;;;;;;5060037;28;20448;-80
2021/04/22 00:23:21;;;;;;;9.80;8.90;;;8.00;99.90;;;;;;5058302;28;20551;-80
2021/04/22 00:25:47;;;;;;;10.10;8.77;;;7.80;99.90;;;;;;5060914;28;20186;-80
2021/04/22 00:28:14;;;;;;;9.07;8.20;;;7.70;99.90;;;;;;5058021;28;20179;-80
2021/04/22 00:30:41;;;;;;;9.10;8.20;;;7.70;99.90;;;;;;5064338;28;20248;-80
2021/04/22 00:33:12;;;;;;;10.67;8.90;;;7.80;99.90;;;;;;5057243;28;20451;-79
2021/04/22 00:35:38;;;;;;;11.27;10.13;;;8.00;99.90;;;;;;5055671;28;20446;-80
2021/04/22 00:38:05;;;;;;;10.80;9.70;;;8.00;99.90;;;;;;5056189;28;20943;-80
2021/04/22 00:40:31;;;;;;;11.87;9.07;;;8.00;99.90;;;;;;5072137;28;20476;-80
2021/04/22 00:43:07;;;;;;;9.77;8.77;;;8.10;99.90;;;;;;5060631;28;20436;-80
2021/04/22 00:45:33;;;;;;;11.13;10.03;;;8.20;99.90;;;;;;5074222;28;20437;-80
2021/04/22 00:47:59;;;;;;;11.37;10.27;;;8.20;99.90;;;;;;5059132;28;20473;-80
2021/04/22 00:50:29;;;;;;;12.77;11.00;;;8.30;99.90;;;;;;5063200;28;20446;-80
2021/04/22 00:52:56;;;;;;;12.10;10.80;;;8.30;99.90;;;;;;5054339;28;20878;-80
2021/04/22 00:55:22;;;;;;;14.40;12.90;;;8.30;99.90;;;;;;5053135;28;20481;-80
2021/04/22 00:57:49;;;;;;;16.00;12.90;;;8.30;99.90;;;;;;5056039;28;20544;-80
2021/04/22 01:00:18;;;;;;;17.10;13.67;;;8.30;99.90;;;;;;5056582;28;20447;-80
2021/04/22 01:02:45;;;;;;;17.30;15.53;;;8.20;99.90;;;;;;5055824;28;20437;-80
2021/04/22 01:05:18;;;;;;;14.37;12.83;;;8.30;99.90;;;;;;5055222;28;21117;-80
2021/04/22 01:07:44;;;;;;;14.33;12.53;;;8.40;99.90;;;;;;5060691;28;20464;-80
2021/04/22 01:10:12;;;;;;;12.80;11.40;;;8.40;99.90;;;;;;5054697;28;20909;-81
2021/04/22 01:12:38;;;;;;;13.33;11.97;;;8.50;99.90;;;;;;5058596;28;20445;-80
2021/04/22 01:15:14;;;;;;;14.60;12.27;;;8.40;99.90;;;;;;5054583;28;20486;-80
2021/04/22 01:17:40;;;;;;;12.93;11.43;;;8.40;99.90;;;;;;5063031;28;20191;-80
2021/04/22 01:20:16;;;;;;;14.97;12.97;;;8.50;99.90;;;;;;5055899;28;20453;-80
2021/04/22 01:22:42;;;;;;;13.80;12.40;;;8.50;99.90;;;;;;5081536;28;20432;-80
2021/04/22 01:25:11;;;;;;;13.87;12.00;;;8.50;99.90;;;;;;5056137;28;22156;-80
2021/04/22 01:27:39;;;;;;;12.60;11.13;;;8.50;99.90;;;;;;5061222;28;20777;-80
2021/04/22 01:30:11;;;;;;;11.03;9.93;;;8.60;99.90;;;;;;5051418;28;20543;-80
2021/04/22 01:32:37;;;;;;;10.30;8.77;;;8.60;99.90;;;;;;5053014;28;20445;-81
2021/04/22 01:35:08;;;;;;;9.73;8.73;;;8.70;99.90;;;;;;5056070;28;20835;-81
2021/04/22 01:37:35;;;;;;;11.30;9.50;;;8.60;99.90;;;;;;5055051;28;20194;-80
2021/04/22 01:40:02;;;;;;;10.70;9.40;;;8.70;99.90;;;;;;5060366;28;20439;-80
2021/04/22 01:42:28;;;;;;;10.20;9.10;;;8.80;99.90;;;;;;5059729;28;20867;-80
2021/04/22 01:44:53;;;;;;;13.30;9.10;;;8.80;99.90;;;;;;5058738;28;20520;-81
2021/04/22 01:47:19;;;;;;;10.00;9.00;;;8.80;99.90;;;;;;5056144;28;20296;-80
2021/04/22 01:49:44;;;;;;;10.13;9.10;;;8.80;99.90;;;;;;5056415;28;20199;-80
2021/04/22 01:52:10;;;;;;;10.70;9.63;;;8.90;99.90;;;;;;5069634;28;20186;-80
2021/04/22 01:54:36;;;;;;;10.63;9.53;;;9.00;99.90;;;;;;5053716;28;20225;-80
2021/04/22 01:57:02;;;;;;;11.83;9.13;;;9.00;99.90;;;;;;5058939;28;20253;-80
2021/04/22 01:59:27;;;;;;;12.10;9.23;;;8.90;99.90;;;;;;5058091;28;20299;-80
2021/04/22 02:01:53;;;;;;;11.93;10.77;;;8.80;99.90;;;;;;5073313;28;20436;-80
2021/04/22 02:04:19;;;;;;;11.27;10.07;;;8.80;99.90;;;;;;5055189;28;20187;-81
2021/04/22 02:06:44;;;;;;;10.27;9.17;;;8.60;99.90;;;;;;5055077;28;20190;-81
2021/04/22 02:09:10;;;;;;;10.87;9.77;;;8.60;99.90;;;;;;5056404;28;20342;-80
2021/04/22 02:11:36;;;;;;;10.57;9.47;;;8.60;99.90;;;;;;5058160;28;20178;-80
2021/04/22 02:14:01;;;;;;;11.83;9.73;;;8.50;99.90;;;;;;5058533;28;20217;-80
2021/04/22 02:16:27;;;;;;;10.27;9.23;;;8.40;99.90;;;;;;5058142;28;20193;-80
2021/04/22 02:18:53;;;;;;;11.17;10.07;;;8.40;99.90;;;;;;5056170;28;20202;-81
2021/04/22 02:21:18;;;;;;;12.57;9.90;;;8.40;99.90;;;;;;5058709;28;20189;-80
2021/04/22 02:23:44;;;;;;;12.00;10.10;;;8.40;99.90;;;;;;5049007;28;20191;-81
2021/04/22 02:26:10;;;;;;;11.10;10.00;;;8.40;99.90;;;;;;5055602;28;20652;-80
2021/04/22 02:28:36;;;;;;;11.40;10.30;;;8.40;99.90;;;;;;5056733;28;20190;-80
2021/04/22 02:31:02;;;;;;;12.13;10.03;;;8.40;99.90;;;;;;5056375;28;20205;-80
2021/04/22 02:33:27;;;;;;;10.60;9.50;;;8.40;99.90;;;;;;5057054;28;20464;-80
2021/04/22 02:35:53;;;;;;;10.40;9.40;;;8.50;99.90;;;;;;5057920;28;20441;-80
2021/04/22 02:38:19;;;;;;;10.87;9.53;;;8.50;99.90;;;;;;5058818;28;20183;-81
2021/04/22 02:40:47;;;;;;;10.67;9.57;;;8.50;99.90;;;;;;5075966;28;20525;-81
2021/04/22 02:43:15;;;;;;;10.80;9.70;;;8.50;99.90;;;;;;5059620;28;20738;-81
2021/04/22 02:45:44;;;;;;;11.63;10.17;;;8.50;99.90;;;;;;5057578;28;20439;-81
2021/04/22 02:48:10;;;;;;;12.37;10.63;;;8.40;99.90;;;;;;5053693;28;20533;-81
2021/04/22 02:50:39;;;;;;;11.67;10.47;;;8.30;99.90;;;;;;5052934;28;20442;-81
2021/04/22 02:53:06;;;;;;;11.60;10.43;;;8.30;99.90;;;;;;5052929;28;20428;-80
2021/04/22 02:55:32;;;;;;;11.23;10.13;;;8.20;99.90;;;;;;5049912;28;20459;-80
2021/04/22 02:57:58;;;;;;;11.43;10.33;;;8.10;99.90;;;;;;5056484;28;20433;-80
2021/04/22 03:00:24;;;;;;;10.73;9.63;;;8.00;99.90;;;;;;5052864;28;20208;-80
2021/04/22 03:02:50;;;;;;;10.27;9.23;;;8.00;99.90;;;;;;5054864;28;20809;-80
2021/04/22 03:05:17;;;;;;;12.00;10.70;;;8.00;99.90;;;;;;5070315;28;20440;-80
2021/04/22 03:07:43;;;;;;;10.63;9.63;;;8.00;99.90;;;;;;5054698;28;20452;-80
2021/04/22 03:10:12;;;;;;;10.30;9.20;;;8.10;99.90;;;;;;5056513;28;20441;-80
2021/04/22 03:12:38;;;;;;;10.90;9.90;;;8.20;99.90;;;;;;5055498;28;20822;-81
2021/04/22 03:15:06;;;;;;;11.30;10.20;;;8.30;99.90;;;;;;5056976;28;20465;-81
2021/04/22 03:17:32;;;;;;;11.37;10.17;;;8.40;99.90;;;;;;5055719;28;20182;-80
2021/04/22 03:19:58;;;;;;;11.60;10.50;;;8.40;99.90;;;;;;5054217;28;20477;-80
2021/04/22 03:22:24;;;;;;;15.80;10.13;;;8.30;99.90;;;;;;5073840;28;21004;-80
2021/04/22 03:24:49;;;;;;;11.30;10.10;;;8.30;99.90;;;;;;5066881;28;20189;-80
2021/04/22 03:27:15;;;;;;;12.50;10.50;;;8.20;99.90;;;;;;5064706;28;20619;-80
2021/04/22 03:29:41;;;;;;;11.17;9.70;;;8.30;99.90;;;;;;5063607;28;20544;-80
2021/04/22 03:32:06;;;;;;;10.70;9.40;;;8.30;99.90;;;;;;5060328;28;20191;-80
2021/04/22 03:34:32;;;;;;;10.97;9.87;;;8.40;99.90;;;;;;5058345;28;20681;-79
2021/04/22 03:37:05;;;;;;;11.63;10.53;;;8.40;99.90;;;;;;5073656;28;20610;-79
2021/04/22 03:39:31;;;;;;;12.00;10.80;;;8.40;99.90;;;;;;5057175;28;20454;-80
2021/04/22 03:41:56;;;;;;;11.33;10.17;;;8.50;99.90;;;;;;5061146;28;20198;-79
2021/04/22 03:44:22;;;;;;;12.10;10.70;;;8.50;99.90;;;;;;5057931;28;20191;-80
2021/04/22 03:46:48;;;;;;;11.80;10.60;;;8.50;99.90;;;;;;5062034;28;20198;-80
2021/04/22 03:49:13;;;;;;;12.00;10.47;;;8.60;99.90;;;;;;5066725;28;20194;-80
2021/04/22 03:51:39;;;;;;;12.37;11.17;;;8.60;99.90;;;;;;5066518;28;20476;-80
2021/04/22 03:54:05;;;;;;;12.93;11.63;;;8.60;99.90;;;;;;5062403;28;21772;-80
2021/04/22 03:56:31;;;;;;;12.73;11.53;;;8.50;99.90;;;;;;5061500;28;20180;-79
2021/04/22 03:58:56;;;;;;;13.30;12.00;;;8.60;99.90;;;;;;5077478;28;20531;-80
2021/04/22 04:01:22;;;;;;;12.03;10.63;;;8.70;99.90;;;;;;5055031;28;20665;-80
2021/04/22 04:03:48;;;;;;;13.87;12.47;;;8.70;99.90;;;;;;5058975;28;20195;-81
2021/04/22 04:06:13;;;;;;;13.70;12.30;;;8.80;99.90;;;;;;5055753;28;20214;-81
2021/04/22 04:08:39;;;;;;;16.17;13.67;;;8.70;99.90;;;;;;5061029;28;20358;-82
2021/04/22 04:11:05;;;;;;;13.77;12.30;;;8.70;99.90;;;;;;5059368;28;20180;-80
2021/04/22 04:13:30;;;;;;;14.40;12.90;;;8.70;99.90;;;;;;5062895;28;20267;-80
2021/04/22 04:15:56;;;;;;;14.53;13.03;;;8.70;99.90;;;;;;5058597;28;20185;-80
2021/04/22 04:18:22;;;;;;;14.33;12.93;;;8.80;99.90;;;;;;5054885;28;20211;-81
2021/04/22 04:20:48;;;;;;;15.07;13.47;;;8.80;99.90;;;;;;5062571;28;20281;-81
2021/04/22 04:23:14;;;;;;;18.33;14.00;;;8.60;99.90;;;;;;5058074;28;20601;-81
2021/04/22 04:25:41;;;;;;;18.03;14.57;;;8.60;99.90;;;;;;5070858;28;20467;-83
2021/04/22 04:28:07;;;;;;;17.30;13.73;;;8.60;99.90;;;;;;5059387;28;20827;-81
2021/04/22 04:30:33;;;;;;;14.77;13.30;;;8.60;99.90;;;;;;5059139;28;20511;-81
2021/04/22 04:32:59;;;;;;;17.57;14.57;;;8.60;99.90;;;;;;5057680;28;20432;-82
2021/04/22 04:35:25;;;;;;;20.30;16.70;;;8.60;99.90;;;;;;5057619;28;20301;-81
2021/04/22 04:37:50;;;;;;;25.07;21.47;;;8.50;99.90;;;;;;5055143;28;20524;-81
2021/04/22 04:40:17;;;;;;;24.63;21.43;;;8.60;99.90;;;;;;5054267;28;20435;-81
2021/04/22 04:42:43;;;;;;;26.77;21.73;;;8.80;99.90;;;;;;5057834;28;20232;-81
2021/04/22 04:45:13;;;;;;;26.20;23.23;;;8.80;99.90;;;;;;5055199;28;20484;-81
2021/04/22 04:47:39;;;;;;;24.63;21.17;;;8.80;99.90;;;;;;5060367;28;20511;-81
2021/04/22 04:50:07;;;;;;;26.70;20.90;;;8.80;99.90;;;;;;5055862;28;20439;-80
2021/04/22 04:52:33;;;;;;;22.23;19.50;;;8.90;99.90;;;;;;5057093;28;20850;-80
2021/04/22 04:54:58;;;;;;;26.03;21.20;;;8.90;99.90;;;;;;5052341;28;22133;-80
2021/04/22 04:57:24;;;;;;;22.30;19.30;;;9.00;99.90;;;;;;5054201;28;20730;-81
2021/04/22 04:59:50;;;;;;;23.27;20.00;;;9.00;99.90;;;;;;5052132;28;20206;-81
2021/04/22 05:02:16;;;;;;;25.23;19.57;;;9.00;99.90;;;;;;5059007;28;20192;-80
2021/04/22 05:04:42;;;;;;;22.83;19.17;;;9.10;99.90;;;;;;5055984;28;20492;-80
2021/04/22 05:07:07;;;;;;;29.27;21.50;;;9.10;99.90;;;;;;5055661;28;20774;-80
2021/04/22 05:09:33;;;;;;;26.77;20.83;;;9.00;99.90;;;;;;5060326;28;20196;-80
2021/04/22 05:11:59;;;;;;;26.97;21.17;;;9.10;99.90;;;;;;5056011;28;20712;-80
2021/04/22 05:14:24;;;;;;;25.97;20.57;;;9.00;99.90;;;;;;5055614;28;20304;-80
2021/04/22 05:16:50;;;;;;;22.93;19.00;;;9.10;99.90;;;;;;5054052;28;20281;-81
2021/04/22 05:19:16;;;;;;;23.83;19.80;;;9.00;99.90;;;;;;5054074;28;20231;-80
2021/04/22 05:21:41;;;;;;;26.63;21.57;;;9.10;99.90;;;;;;5051134;28;20180;-81
2021/04/22 05:24:07;;;;;;;26.27;20.60;;;9.10;99.90;;;;;;5055894;28;20203;-81
2021/04/22 05:26:33;;;;;;;23.67;20.27;;;9.10;99.90;;;;;;5050245;28;20228;-81
2021/04/22 05:28:59;;;;;;;26.27;21.37;;;9.00;99.90;;;;;;5054101;28;20425;-80
2021/04/22 05:31:25;;;;;;;30.20;21.37;;;9.00;99.90;;;;;;5054245;28;20226;-81
2021/04/22 05:33:50;;;;;;;25.80;21.73;;;9.10;99.90;;;;;;5056328;28;20227;-80
2021/04/22 05:36:16;;;;;;;24.27;20.40;;;9.10;99.90;;;;;;5059095;28;20433;-80
2021/04/22 05:38:42;;;;;;;28.40;21.93;;;9.20;99.90;;;;;;5053057;28;20240;-80
2021/04/22 05:41:08;;;;;;;25.37;20.90;;;9.20;99.90;;;;;;5056992;28;20204;-79
2021/04/22 05:43:34;;;;;;;24.60;21.10;;;9.40;99.90;;;;;;5059258;28;20483;-79
2021/04/22 05:46:00;;;;;;;26.13;21.60;;;9.60;99.90;;;;;;5054250;28;20513;-81
2021/04/22 05:48:26;;;;;;;23.73;20.33;;;9.80;99.90;;;;;;5053422;28;20442;-80
2021/04/22 05:50:52;;;;;;;27.73;20.93;;;10.00;99.90;;;;;;5054292;28;20431;-80
2021/04/22 05:53:18;;;;;;;24.30;20.60;;;10.10;99.90;;;;;;5054181;28;20689;-80
2021/04/22 05:55:44;;;;;;;26.23;21.13;;;10.10;99.90;;;;;;5055526;28;20460;-80
2021/04/22 05:58:10;;;;;;;24.30;20.73;;;10.20;99.90;;;;;;5060547;28;20420;-81
2021/04/22 06:00:36;;;;;;;24.70;19.67;;;10.40;99.90;;;;;;5056632;28;20456;-80
2021/04/22 06:03:06;;;;;;;24.90;21.53;;;10.50;99.90;;;;;;5054666;28;20428;-81
2021/04/22 06:05:32;;;;;;;26.67;21.60;;;10.60;99.90;;;;;;5056446;28;20457;-80
2021/04/22 06:07:59;;;;;;;22.27;19.97;;;10.50;99.90;;;;;;5057208;28;20446;-81
2021/04/22 06:10:24;;;;;;;23.30;20.80;;;10.40;99.90;;;;;;5037121;28;20679;-81
2021/04/22 06:12:51;;;;;;;25.30;21.70;;;10.40;99.90;;;;;;5053741;28;21223;-81
2021/04/22 06:15:18;;;;;;;26.27;22.37;;;10.40;99.90;;;;;;5056127;28;20249;-81
2021/04/22 06:17:44;;;;;;;25.77;21.20;;;10.50;99.90;;;;;;5075731;28;20432;-81
2021/04/22 06:20:13;;;;;;;27.80;21.70;;;10.60;99.90;;;;;;5053298;28;20444;-81
2021/04/22 06:22:39;;;;;;;27.90;23.13;;;10.70;99.90;;;;;;5051766;28;20608;-80
2021/04/22 06:25:06;;;;;;;27.33;21.87;;;10.70;99.90;;;;;;5055872;28;20432;-80
2021/04/22 06:27:32;;;;;;;27.30;22.00;;;10.70;99.90;;;;;;5053946;28;20800;-79
2021/04/22 06:29:59;;;;;;;23.47;20.30;;;10.80;99.90;;;;;;5053641;28;20455;-80
2021/04/22 06:32:24;;;;;;;25.30;20.70;;;10.90;99.90;;;;;;5048284;28;20279;-80
2021/04/22 06:34:50;;;;;;;23.13;20.00;;;11.00;99.90;;;;;;5054091;28;20480;-80
2021/04/22 06:37:16;;;;;;;22.23;19.73;;;11.00;99.90;;;;;;5055325;28;20255;-81
2021/04/22 06:39:42;;;;;;;21.53;19.20;;;11.00;99.90;;;;;;5054979;28;20845;-81
2021/04/22 06:42:08;;;;;;;23.47;20.93;;;11.10;99.90;;;;;;5053263;28;21121;-80
2021/04/22 06:44:36;;;;;;;26.33;19.73;;;11.20;99.90;;;;;;5054352;28;20190;-87
2021/04/22 06:47:03;;;;;;;23.50;20.60;;;11.10;99.90;;;;;;5069816;28;20450;-86
2021/04/22 06:49:28;;;;;;;22.70;20.00;;;11.10;99.90;;;;;;5049258;28;20437;-84
2021/04/22 06:51:55;;;;;;;23.70;20.10;;;11.10;99.90;;;;;;5060704;28;20448;-83
2021/04/22 06:54:21;;;;;;;25.03;21.30;;;11.20;99.90;;;;;;5055534;28;21015;-84
2021/04/22 06:56:57;;;;;;;26.90;21.17;;;11.30;99.90;;;;;;5068094;28;20513;-83
2021/04/22 06:59:23;;;;;;;23.13;20.70;;;11.30;99.90;;;;;;5043898;28;20791;-82
2021/04/22 07:01:49;;;;;;;24.30;20.77;;;11.10;99.90;;;;;;5056434;28;20455;-84
2021/04/22 07:04:29;;;;;;;23.63;20.77;;;11.10;99.90;;;;;;5054670;28;20191;-85
2021/04/22 07:06:58;;;;;;;25.13;20.10;;;11.40;99.90;;;;;;5070133;28;20234;-83
2021/04/22 07:09:32;;;;;;;25.87;20.17;;;11.20;99.90;;;;;;5050324;28;20441;-84
2021/04/22 07:12:06;;;;;;;25.53;19.73;;;11.00;99.90;;;;;;5051004;28;20648;-84
2021/04/22 07:15:02;;;;;;;21.10;18.90;;;10.80;99.90;;;;;;5048518;28;20559;-84
2021/04/22 07:17:30;;;;;;;21.63;18.70;;;10.70;99.90;;;;;;5060512;28;20456;-84
2021/04/22 07:19:56;;;;;;;24.87;20.60;;;10.90;99.90;;;;;;5051888;28;20530;-85
2021/04/22 07:22:23;;;;;;;21.27;18.50;;;11.20;99.90;;;;;;5055978;28;20226;-84
2021/04/22 07:24:49;;;;;;;22.10;19.03;;;11.30;99.90;;;;;;5057431;28;20214;-85
2021/04/22 07:27:15;;;;;;;24.73;19.00;;;11.10;99.90;;;;;;5049736;28;20449;-84
2021/04/22 07:29:44;;;;;;;22.33;19.93;;;11.10;99.90;;;;;;5052764;28;21146;-83
2021/04/22 07:32:12;;;;;;;25.53;19.30;;;11.20;99.90;;;;;;5052527;28;20499;-85
2021/04/22 07:34:46;;;;;;;23.30;19.60;;;11.10;99.90;;;;;;5068416;28;20502;-84
2021/04/22 07:37:14;;;;;;;24.60;20.30;;;10.90;99.90;;;;;;5053114;28;20452;-83
2021/04/22 07:39:41;;;;;;;21.87;19.57;;;11.00;99.90;;;;;;5054764;28;20544;-84
2021/04/22 07:42:07;;;;;;;21.87;18.90;;;10.90;99.90;;;;;;5074545;28;20459;-84
2021/04/22 07:44:34;;;;;;;21.93;18.40;;;11.10;99.90;;;;;;5053482;28;20460;-84
2021/04/22 07:47:00;;;;;;;22.97;19.37;;;11.10;99.90;;;;;;5049859;28;20267;-83
2021/04/22 07:49:26;;;;;;;29.10;20.10;;;11.20;99.90;;;;;;5057920;28;20459;-84
2021/04/22 07:51:53;;;;;;;22.20;19.80;;;11.30;99.90;;;;;;5052358;28;20456;-84
2021/04/22 07:54:20;;;;;;;26.33;20.10;;;11.70;99.90;;;;;;5061107;28;20899;-84
2021/04/22 07:56:45;;;;;;;27.73;18.97;;;12.00;99.90;;;;;;5053541;28;20558;-83
2021/04/22 07:59:11;;;;;;;22.50;19.40;;;12.00;99.90;;;;;;5057803;28;20182;-83
2021/04/22 08:01:40;;;;;;;26.40;19.43;;;11.90;99.90;;;;;;5049600;28;20910;-84
2021/04/22 08:04:05;;;;;;;21.60;18.20;;;11.70;99.90;;;;;;5050368;28;20198;-84
2021/04/22 08:06:33;;;;;;;17.93;16.03;;;12.10;99.90;;;;;;5052096;28;20886;-81
2021/04/22 08:08:59;;;;;;;21.40;18.40;;;11.90;99.90;;;;;;5055414;28;20216;-83
2021/04/22 08:11:34;;;;;;;21.87;18.20;;;11.50;99.90;;;;;;5050084;28;20451;-89
2021/04/22 08:14:01;;;;;;;20.70;18.50;;;11.70;99.90;;;;;;5060618;28;20514;-86
2021/04/22 08:16:28;;;;;;;23.37;17.47;;;11.90;99.90;;;;;;5056098;28;20483;-82
2021/04/22 08:18:54;;;;;;;20.07;17.90;;;12.20;99.90;;;;;;5056500;28;20448;-83
2021/04/22 08:21:22;;;;;;;20.87;18.10;;;12.70;99.90;;;;;;5058506;28;20941;-85
2021/04/22 08:23:47;;;;;;;22.87;17.87;;;12.70;99.90;;;;;;5055910;28;20477;-84
2021/04/22 08:26:17;;;;;;;30.10;18.60;;;12.80;99.90;;;;;;5059881;28;20441;-84
2021/04/22 08:28:47;;;;;;;21.73;17.93;;;12.90;99.90;;;;;;5058280;28;20227;-85
2021/04/22 08:31:23;;;;;;;24.60;17.50;;;12.90;99.90;;;;;;5054197;28;20959;-85
2021/04/22 08:33:52;;;;;;;22.77;18.53;;;13.00;99.90;;;;;;5050962;28;21358;-86
2021/04/22 08:36:20;;;;;;;21.30;19.00;;;12.50;99.90;;;;;;5056829;28;20484;-85
2021/04/22 08:38:49;;;;;;;21.00;18.80;;;12.30;99.90;;;;;;5055152;28;21291;-85
2021/04/22 08:41:16;;;;;;;23.07;17.30;;;12.30;99.90;;;;;;5057606;28;20911;-85
2021/04/22 08:43:43;;;;;;;20.10;16.83;;;12.00;99.90;;;;;;5053682;28;20522;-86
2021/04/22 08:46:11;;;;;;;20.60;17.30;;;12.10;99.90;;;;;;5056958;28;20448;-85
2021/04/22 08:48:38;;;;;;;23.70;18.37;;;12.40;99.90;;;;;;5060405;28;20520;-85
2021/04/22 08:51:05;;;;;;;21.17;17.53;;;12.60;99.90;;;;;;5058042;28;20511;-85
2021/04/22 08:53:34;;;;;;;25.30;17.10;;;12.50;99.90;;;;;;5056165;28;20444;-85
2021/04/22 08:56:01;;;;;;;22.40;16.87;;;12.50;99.90;;;;;;5054189;28;20505;-84
2021/04/22 08:58:27;;;;;;;20.17;18.03;;;12.40;99.90;;;;;;5054294;28;20436;-86
2021/04/22 09:00:55;;;;;;;19.23;17.03;;;12.30;99.90;;;;;;5051613;28;20472;-85
2021/04/22 09:03:21;;;;;;;19.37;16.33;;;12.10;99.90;;;;;;5060553;28;20443;-84
2021/04/22 09:05:47;;;;;;;24.50;17.33;;;12.20;99.90;;;;;;5058630;28;20802;-85
2021/04/22 09:08:21;;;;;;;19.53;17.53;;;12.30;99.90;;;;;;5054490;28;20429;-84
2021/04/22 09:10:46;;;;;;;20.03;17.90;;;12.50;99.90;;;;;;5059568;28;20448;-84
2021/04/22 09:13:15;;;;;;;20.60;17.40;;;12.30;99.90;;;;;;5054827;28;20448;-85
2021/04/22 09:15:43;;;;;;;24.17;18.83;;;12.40;99.90;;;;;;5054126;28;20245;-85
2021/04/22 09:18:18;;;;;;;20.17;16.67;;;12.50;99.90;;;;;;5057021;28;20573;-86
2021/04/22 09:20:51;;;;;;;21.60;16.73;;;12.50;99.90;;;;;;5051746;28;20467;-86
2021/04/22 09:23:30;;;;;;;19.57;16.37;;;12.80;99.90;;;;;;5054702;28;20590;-86
2021/04/22 09:26:05;;;;;;;24.57;17.17;;;12.90;99.30;;;;;;5057456;28;20447;-85
2021/04/22 09:28:49;;;;;;;20.10;15.83;;;12.90;99.10;;;;;;5062669;28;20420;-85
2021/04/22 09:31:36;;;;;;;22.50;17.80;;;12.70;99.60;;;;;;5058083;28;20473;-85
2021/04/22 09:34:06;;;;;;;19.90;16.90;;;13.50;99.70;;;;;;5043772;28;20485;-84
2021/04/22 09:36:42;;;;;;;19.97;17.87;;;14.40;98.50;;;;;;5042133;28;20437;-84
2021/04/22 09:39:09;;;;;;;18.43;16.53;;;14.40;96.30;;;;;;5050401;28;20487;-84
2021/04/22 09:41:36;;;;;;;19.43;17.00;;;14.30;96.00;;;;;;5049540;28;20440;-84
2021/04/22 09:44:11;;;;;;;17.93;16.13;;;14.30;96.10;;;;;;5048056;28;20428;-85
2021/04/22 09:46:43;;;;;;;19.60;17.23;;;14.20;96.50;;;;;;5047223;28;20788;-85
2021/04/22 09:49:27;;;;;;;20.27;16.67;;;14.40;94.60;;;;;;5047562;28;20550;-85
2021/04/22 09:51:53;;;;;;;21.70;16.50;;;14.90;96.40;;;;;;5049407;28;20895;-84
2021/04/22 09:54:30;;;;;;;22.00;17.53;;;15.30;95.30;;;;;;5040745;28;20476;-85
2021/04/22 09:56:58;;;;;;;19.37;16.67;;;14.70;94.50;;;;;;5053142;28;20429;-86
2021/04/22 09:59:27;;;;;;;18.40;16.50;;;13.80;95.00;;;;;;5052095;28;20845;-86
2021/04/22 10:02:07;;;;;;;18.00;16.10;;;12.80;96.90;;;;;;5058471;28;20433;-86
2021/04/22 10:04:42;;;;;;;20.03;15.87;;;12.60;97.10;;;;;;5053966;28;20529;-86
2021/04/22 10:07:27;;;;;;;23.33;17.00;;;12.40;97.40;;;;;;5055761;28;20485;-86
2021/04/22 10:10:17;;;;;;;18.63;16.50;;;12.50;97.80;;;;;;5054601;28;20476;-86
2021/04/22 10:12:48;;;;;;;18.40;15.70;;;12.60;97.60;;;;;;5052370;28;20642;-86
2021/04/22 10:15:22;;;;;;;14.93;13.33;;;13.20;99.10;;;;;;5055480;28;20473;-85
2021/04/22 10:17:53;;;;;;;15.77;13.73;;;14.40;96.00;;;;;;5075422;28;20542;-85
2021/04/22 10:20:26;;;;;;;15.50;13.27;;;15.20;94.80;;;;;;5053831;28;20540;-86
2021/04/22 10:22:53;;;;;;;18.57;15.30;;;15.90;94.40;;;;;;5067201;28;20491;-85
2021/04/22 10:25:29;;;;;;;18.17;14.40;;;16.50;92.40;;;;;;5075603;28;20424;-86
2021/04/22 10:28:02;;;;;;;23.33;15.27;;;15.70;90.60;;;;;;5052714;28;20432;-85
2021/04/22 10:30:28;;;;;;;16.00;14.27;;;15.70;91.20;;;;;;5056889;28;20494;-85
2021/04/22 10:32:55;;;;;;;15.70;14.00;;;15.60;91.60;;;;;;5058110;28;21092;-85
2021/04/22 10:35:24;;;;;;;16.53;13.83;;;15.20;92.70;;;;;;5055745;28;20643;-84
2021/04/22 10:37:56;;;;;;;18.27;14.80;;;14.80;91.60;;;;;;5057454;28;20452;-84
2021/04/22 10:40:28;;;;;;;16.30;13.30;;;15.50;94.20;;;;;;5053423;28;20804;-85
2021/04/22 10:42:58;;;;;;;16.30;12.40;;;15.80;91.40;;;;;;5052756;28;21818;-84
2021/04/22 10:45:25;;;;;;;15.90;13.70;;;15.20;90.30;;;;;;5055900;28;20439;-84
2021/04/22 10:47:51;;;;;;;17.30;13.37;;;14.50;91.40;;;;;;5053150;28;20430;-86
2021/04/22 10:50:23;;;;;;;14.10;12.50;;;14.90;91.60;;;;;;5055811;28;21019;-85
2021/04/22 10:52:51;;;;;;;19.53;12.07;;;15.50;90.50;;;;;;5058287;28;20494;-83
2021/04/22 10:55:23;;;;;;;15.87;12.27;;;15.40;89.60;;;;;;5055856;28;20469;-85
2021/04/22 10:57:51;;;;;;;15.67;12.27;;;15.30;87.90;;;;;;5053490;28;20527;-84
2021/04/22 11:00:21;;;;;;;12.90;11.70;;;15.80;89.00;;;;;;5052922;28;20452;-83
2021/04/22 11:02:53;;;;;;;12.80;11.30;;;15.70;87.10;;;;;;5054898;28;20458;-85
2021/04/22 11:05:29;;;;;;;13.77;11.80;;;15.80;89.80;;;;;;5049857;28;20444;-86
2021/04/22 11:08:04;;;;;;;13.23;11.30;;;16.00;89.80;;;;;;5047139;28;20440;-83
2021/04/22 11:10:34;;;;;;;10.57;9.50;;;16.60;86.10;;;;;;5054045;28;20431;-84
2021/04/22 11:13:17;;;;;;;12.77;9.43;;;17.00;81.80;;;;;;5054904;28;20433;-84
2021/04/22 11:15:54;;;;;;;10.13;9.13;;;16.30;75.30;;;;;;5051662;28;20480;-84
2021/04/22 11:18:32;;;;;;;8.60;7.70;;;16.30;77.30;;;;;;5067685;28;20439;-84
2021/04/22 11:20:57;;;;;;;10.93;9.10;;;16.30;76.20;;;;;;5049607;28;20965;-84
2021/04/22 11:23:24;;;;;;;12.13;9.87;;;15.90;75.70;;;;;;5055352;28;20502;-84
2021/04/22 11:25:52;;;;;;;12.60;9.50;;;16.70;79.10;;;;;;5054940;28;20293;-86
2021/04/22 11:28:32;;;;;;;10.63;8.67;;;17.50;69.40;;;;;;5055297;28;20440;-85
2021/04/22 11:31:12;;;;;;;9.37;7.80;;;17.50;71.20;;;;;;5054224;28;20425;-84
2021/04/22 11:33:40;;;;;;;9.37;7.33;;;17.10;63.70;;;;;;5066635;28;20427;-81
2021/04/22 11:36:23;;;;;;;10.93;7.87;;;17.30;65.30;;;;;;5052501;28;20424;-82
2021/04/22 11:38:50;;;;;;;7.90;6.90;;;17.40;61.40;;;;;;5078860;28;20440;-80
2021/04/22 11:41:15;;;;;;;9.97;8.13;;;17.80;62.00;;;;;;5058350;28;20443;-80
2021/04/22 11:43:43;;;;;;;12.70;7.90;;;17.80;62.80;;;;;;5049351;28;20459;-80
2021/04/22 11:46:10;;;;;;;14.13;8.03;;;17.20;58.90;;;;;;5055074;28;20222;-80
2021/04/22 11:48:39;;;;;;;9.70;8.40;;;16.80;57.20;;;;;;5055992;28;20536;-80
2021/04/22 11:51:05;;;;;;;10.53;7.53;;;17.00;58.40;;;;;;5056326;28;20526;-81
2021/04/22 11:53:44;;;;;;;8.90;6.47;;;16.90;65.10;;;;;;5058418;28;20507;-80
2021/04/22 11:56:12;;;;;;;8.40;6.93;;;17.60;58.80;;;;;;5060113;28;20482;-81
2021/04/22 11:58:39;;;;;;;7.80;6.00;;;18.10;58.50;;;;;;5071457;28;20421;-81
2021/04/22 12:01:08;;;;;;;5.70;4.70;;;18.70;59.30;;;;;;5053032;28;20443;-80
2021/04/22 12:03:36;;;;;;;9.60;6.63;;;18.30;52.90;;;;;;5057715;28;20460;-81
2021/04/22 12:06:08;;;;;;;8.97;7.07;;;16.40;51.10;;;;;;5051075;28;20468;-79
2021/04/22 12:08:38;;;;;;;9.67;7.40;;;16.40;52.30;;;;;;5055422;28;20444;-79
2021/04/22 12:11:07;;;;;;;7.23;5.77;;;16.20;51.20;;;;;;5055358;28;20489;-79
2021/04/22 12:13:34;;;;;;;7.77;5.00;;;16.50;52.10;;;;;;5057314;28;20872;-82
2021/04/22 12:16:02;;;;;;;8.10;5.40;;;17.30;54.20;;;;;;5055785;28;20528;-80
2021/04/22 12:18:34;;;;;;;7.63;5.07;;;18.40;56.60;;;;;;5053911;28;20472;-79
2021/04/22 12:21:24;;;;;;;4.77;4.03;;;18.40;49.70;;;;;;5061653;28;20420;-80
2021/04/22 12:23:56;;;;;;;5.70;4.23;;;18.20;46.50;;;;;;5058028;28;20455;-80
2021/04/22 12:26:25;;;;;;;4.87;3.93;;;18.80;47.90;;;;;;5053698;28;20444;-80
2021/04/22 12:28:52;;;;;;;8.00;5.00;;;19.10;44.40;;;;;;5059684;28;20445;-81
2021/04/22 12:31:45;;;;;;;5.80;4.60;;;19.10;48.00;;;;;;5054452;28;20471;-80
2021/04/22 12:34:15;;;;;;;5.27;4.50;;;19.30;45.70;;;;;;5047815;28;20465;-80
2021/04/22 12:37:03;;;;;;;6.23;4.60;;;19.70;46.60;;;;;;5056576;28;20421;-80
2021/04/22 12:39:34;;;;;;;7.30;5.00;;;20.00;45.50;;;;;;5056239;28;20780;-80
2021/04/22 12:42:07;;;;;;;8.07;5.53;;;20.30;44.00;;;;;;5051064;28;20449;-81